sensor_id;sensor_type;location;lat;lon;timestamp;temperature;humidity
28087;DHT22;15392;48.912;8.380;2023-04-06T00:01:50;10.70;40.20
28087;DHT22;15392;48.912;8.380;2023-04-06T00:04:16;10.70;40.20
28087;DHT22;15392;48.912;8.380;2023-04-06T00:06:42;10.70;40.30
28087;DHT22;15392;48.912;8.380;2023-04-06T00:09:07;10.60;40.30
28087;DHT22;15392;48.912;8.380;2023-04-06T00:11:33;10.60;40.30
28087;DHT22;15392;48.912;8.380;2023-04-06T00:13:59;10.60;40.30
28087;DHT22;15392;48.912;8.380;2023-04-06T00:16:25;10.60;40.40
28087;DHT22;15392;48.912;8.380;2023-04-06T00:18:51;10.60;40.50
28087;DHT22;15392;48.912;8.380;2023-04-06T00:21:17;10.60;40.40
28087;DHT22;15392;48.912;8.380;2023-04-06T00:23:43;10.60;40.40
28087;DHT22;15392;48.912;8.380;2023-04-06T00:26:09;10.60;40.30
28087;DHT22;15392;48.912;8.380;2023-04-06T00:28:37;10.60;40.30
28087;DHT22;15392;48.912;8.380;2023-04-06T00:31:03;10.50;40.90
28087;DHT22;15392;48.912;8.380;2023-04-06T00:33:29;10.50;40.20
28087;DHT22;15392;48.912;8.380;2023-04-06T00:35:55;10.50;40.10
28087;DHT22;15392;48.912;8.380;2023-04-06T00:38:21;10.40;40.00
28087;DHT22;15392;48.912;8.380;2023-04-06T00:40:47;10.40;40.10
28087;DHT22;15392;48.912;8.380;2023-04-06T00:43:13;10.40;40.20
28087;DHT22;15392;48.912;8.380;2023-04-06T00:45:40;10.40;40.10
28087;DHT22;15392;48.912;8.380;2023-04-06T00:48:07;10.30;40.10
28087;DHT22;15392;48.912;8.380;2023-04-06T00:50:34;10.30;40.20
28087;DHT22;15392;48.912;8.380;2023-04-06T00:53:00;10.30;40.20
28087;DHT22;15392;48.912;8.380;2023-04-06T00:55:27;10.20;40.20
28087;DHT22;15392;48.912;8.380;2023-04-06T00:57:53;10.20;40.20
28087;DHT22;15392;48.912;8.380;2023-04-06T01:00:20;10.20;40.10
28087;DHT22;15392;48.912;8.380;2023-04-06T01:02:46;10.10;39.90
28087;DHT22;15392;48.912;8.380;2023-04-06T01:05:13;10.10;39.90
28087;DHT22;15392;48.912;8.380;2023-04-06T01:07:39;10.00;39.90
28087;DHT22;15392;48.912;8.380;2023-04-06T01:10:05;9.90;40.10
28087;DHT22;15392;48.912;8.380;2023-04-06T01:12:31;9.90;40.20
28087;DHT22;15392;48.912;8.380;2023-04-06T01:14:57;9.90;40.40
28087;DHT22;15392;48.912;8.380;2023-04-06T01:17:23;9.90;40.40
28087;DHT22;15392;48.912;8.380;2023-04-06T01:19:49;9.90;40.50
28087;DHT22;15392;48.912;8.380;2023-04-06T01:22:16;9.90;40.50
28087;DHT22;15392;48.912;8.380;2023-04-06T01:24:42;9.90;40.50
28087;DHT22;15392;48.912;8.380;2023-04-06T01:27:08;9.90;40.50
28087;DHT22;15392;48.912;8.380;2023-04-06T01:29:34;9.90;40.40
28087;DHT22;15392;48.912;8.380;2023-04-06T01:31:59;9.90;40.40
28087;DHT22;15392;48.912;8.380;2023-04-06T01:34:25;9.80;40.30
28087;DHT22;15392;48.912;8.380;2023-04-06T01:36:51;9.70;40.20
28087;DHT22;15392;48.912;8.380;2023-04-06T01:39:18;9.70;40.10
28087;DHT22;15392;48.912;8.380;2023-04-06T01:41:44;9.70;40.00
28087;DHT22;15392;48.912;8.380;2023-04-06T01:44:14;9.60;40.00
28087;DHT22;15392;48.912;8.380;2023-04-06T01:46:41;9.50;39.90
28087;DHT22;15392;48.912;8.380;2023-04-06T01:49:07;9.40;39.90
28087;DHT22;15392;48.912;8.380;2023-04-06T01:51:33;9.40;40.10
28087;DHT22;15392;48.912;8.380;2023-04-06T01:53:59;9.30;40.30
28087;DHT22;15392;48.912;8.380;2023-04-06T01:56:25;9.30;40.50
28087;DHT22;15392;48.912;8.380;2023-04-06T01:58:50;9.30;40.70
28087;DHT22;15392;48.912;8.380;2023-04-06T02:01:16;9.30;40.80
28087;DHT22;15392;48.912;8.380;2023-04-06T02:03:42;9.30;40.90
28087;DHT22;15392;48.912;8.380;2023-04-06T02:06:08;9.30;41.00
28087;DHT22;15392;48.912;8.380;2023-04-06T02:08:34;9.40;41.10
28087;DHT22;15392;48.912;8.380;2023-04-06T02:10:59;9.40;41.10
28087;DHT22;15392;48.912;8.380;2023-04-06T02:13:25;9.40;41.20
28087;DHT22;15392;48.912;8.380;2023-04-06T02:15:51;9.40;41.20
28087;DHT22;15392;48.912;8.380;2023-04-06T02:18:17;9.40;41.20
28087;DHT22;15392;48.912;8.380;2023-04-06T02:20:44;9.40;41.20
28087;DHT22;15392;48.912;8.380;2023-04-06T02:23:10;9.40;41.30
28087;DHT22;15392;48.912;8.380;2023-04-06T02:25:36;9.40;41.30
28087;DHT22;15392;48.912;8.380;2023-04-06T02:28:02;9.40;41.30
28087;DHT22;15392;48.912;8.380;2023-04-06T02:30:28;9.40;41.30
28087;DHT22;15392;48.912;8.380;2023-04-06T02:32:54;9.40;41.20
28087;DHT22;15392;48.912;8.380;2023-04-06T02:35:20;9.40;41.30
28087;DHT22;15392;48.912;8.380;2023-04-06T02:37:46;9.40;41.30
28087;DHT22;15392;48.912;8.380;2023-04-06T02:40:14;9.40;41.30
28087;DHT22;15392;48.912;8.380;2023-04-06T02:42:39;9.40;41.20
28087;DHT22;15392;48.912;8.380;2023-04-06T02:45:06;9.40;41.10
28087;DHT22;15392;48.912;8.380;2023-04-06T02:47:33;9.30;41.00
28087;DHT22;15392;48.912;8.380;2023-04-06T02:49:58;9.30;41.10
28087;DHT22;15392;48.912;8.380;2023-04-06T02:52:24;9.20;41.10
28087;DHT22;15392;48.912;8.380;2023-04-06T02:54:50;9.20;41.10
28087;DHT22;15392;48.912;8.380;2023-04-06T02:57:16;9.20;41.20
28087;DHT22;15392;48.912;8.380;2023-04-06T02:59:42;9.20;41.30
28087;DHT22;15392;48.912;8.380;2023-04-06T03:02:08;9.20;41.40
28087;DHT22;15392;48.912;8.380;2023-04-06T03:04:34;9.20;41.50
28087;DHT22;15392;48.912;8.380;2023-04-06T03:06:59;9.20;41.50
28087;DHT22;15392;48.912;8.380;2023-04-06T03:09:25;9.20;41.50
28087;DHT22;15392;48.912;8.380;2023-04-06T03:11:52;9.20;41.40
28087;DHT22;15392;48.912;8.380;2023-04-06T03:14:18;9.20;41.40
28087;DHT22;15392;48.912;8.380;2023-04-06T03:16:47;9.20;41.40
28087;DHT22;15392;48.912;8.380;2023-04-06T03:19:14;9.20;41.30
28087;DHT22;15392;48.912;8.380;2023-04-06T03:21:40;9.20;41.40
28087;DHT22;15392;48.912;8.380;2023-04-06T03:24:07;9.20;41.50
28087;DHT22;15392;48.912;8.380;2023-04-06T03:26:33;9.20;41.50
28087;DHT22;15392;48.912;8.380;2023-04-06T03:28:59;9.20;41.50
28087;DHT22;15392;48.912;8.380;2023-04-06T03:31:25;9.20;41.50
28087;DHT22;15392;48.912;8.380;2023-04-06T03:33:51;9.20;41.50
28087;DHT22;15392;48.912;8.380;2023-04-06T03:36:17;9.20;41.50
28087;DHT22;15392;48.912;8.380;2023-04-06T03:38:43;9.20;41.60
28087;DHT22;15392;48.912;8.380;2023-04-06T03:41:09;9.20;41.60
28087;DHT22;15392;48.912;8.380;2023-04-06T03:43:35;9.20;41.50
28087;DHT22;15392;48.912;8.380;2023-04-06T03:46:01;9.20;41.50
28087;DHT22;15392;48.912;8.380;2023-04-06T03:48:26;9.20;41.50
28087;DHT22;15392;48.912;8.380;2023-04-06T03:50:52;9.20;41.50
28087;DHT22;15392;48.912;8.380;2023-04-06T03:53:18;9.20;41.50
28087;DHT22;15392;48.912;8.380;2023-04-06T03:55:44;9.20;41.50
28087;DHT22;15392;48.912;8.380;2023-04-06T03:58:10;9.20;41.50
28087;DHT22;15392;48.912;8.380;2023-04-06T04:00:36;9.20;41.50
28087;DHT22;15392;48.912;8.380;2023-04-06T04:03:01;9.20;42.10
28087;DHT22;15392;48.912;8.380;2023-04-06T04:05:28;9.10;41.50
28087;DHT22;15392;48.912;8.380;2023-04-06T04:07:54;9.20;41.60
28087;DHT22;15392;48.912;8.380;2023-04-06T04:10:20;9.20;41.60
28087;DHT22;15392;48.912;8.380;2023-04-06T04:12:46;9.10;41.50
28087;DHT22;15392;48.912;8.380;2023-04-06T04:15:12;9.10;41.60
28087;DHT22;15392;48.912;8.380;2023-04-06T04:17:37;9.10;41.50
28087;DHT22;15392;48.912;8.380;2023-04-06T04:20:04;9.10;41.50
28087;DHT22;15392;48.912;8.380;2023-04-06T04:22:30;9.10;41.50
28087;DHT22;15392;48.912;8.380;2023-04-06T04:24:56;9.10;41.50
28087;DHT22;15392;48.912;8.380;2023-04-06T04:27:21;9.10;41.60
28087;DHT22;15392;48.912;8.380;2023-04-06T04:29:47;9.10;41.70
28087;DHT22;15392;48.912;8.380;2023-04-06T04:32:13;9.10;41.50
28087;DHT22;15392;48.912;8.380;2023-04-06T04:34:39;9.00;41.50
28087;DHT22;15392;48.912;8.380;2023-04-06T04:37:07;9.00;41.50
28087;DHT22;15392;48.912;8.380;2023-04-06T04:39:33;9.00;41.60
28087;DHT22;15392;48.912;8.380;2023-04-06T04:41:59;9.00;41.60
28087;DHT22;15392;48.912;8.380;2023-04-06T04:44:24;9.00;41.60
28087;DHT22;15392;48.912;8.380;2023-04-06T04:46:51;9.00;41.60
28087;DHT22;15392;48.912;8.380;2023-04-06T04:49:17;9.00;41.60
28087;DHT22;15392;48.912;8.380;2023-04-06T04:51:43;9.00;41.70
28087;DHT22;15392;48.912;8.380;2023-04-06T04:54:09;9.00;41.70
28087;DHT22;15392;48.912;8.380;2023-04-06T04:56:35;9.00;41.70
28087;DHT22;15392;48.912;8.380;2023-04-06T04:59:00;9.00;41.70
28087;DHT22;15392;48.912;8.380;2023-04-06T05:01:26;9.00;42.40
28087;DHT22;15392;48.912;8.380;2023-04-06T05:03:52;9.00;41.80
28087;DHT22;15392;48.912;8.380;2023-04-06T05:06:18;9.00;41.80
28087;DHT22;15392;48.912;8.380;2023-04-06T05:08:44;8.90;41.80
28087;DHT22;15392;48.912;8.380;2023-04-06T05:11:10;8.90;41.90
28087;DHT22;15392;48.912;8.380;2023-04-06T05:13:36;8.90;41.80
28087;DHT22;15392;48.912;8.380;2023-04-06T05:16:02;8.90;41.80
28087;DHT22;15392;48.912;8.380;2023-04-06T05:18:28;8.90;41.90
28087;DHT22;15392;48.912;8.380;2023-04-06T05:20:54;8.80;41.80
28087;DHT22;15392;48.912;8.380;2023-04-06T05:23:20;8.90;41.80
28087;DHT22;15392;48.912;8.380;2023-04-06T05:25:45;8.80;41.80
28087;DHT22;15392;48.912;8.380;2023-04-06T05:28:11;8.80;41.80
28087;DHT22;15392;48.912;8.380;2023-04-06T05:30:39;8.80;41.80
28087;DHT22;15392;48.912;8.380;2023-04-06T05:33:05;8.80;41.90
28087;DHT22;15392;48.912;8.380;2023-04-06T05:35:31;8.80;42.00
28087;DHT22;15392;48.912;8.380;2023-04-06T05:37:57;8.80;41.90
28087;DHT22;15392;48.912;8.380;2023-04-06T05:40:23;8.80;41.90
28087;DHT22;15392;48.912;8.380;2023-04-06T05:42:49;8.80;41.90
28087;DHT22;15392;48.912;8.380;2023-04-06T05:45:14;8.80;41.80
28087;DHT22;15392;48.912;8.380;2023-04-06T05:47:43;8.80;41.80
28087;DHT22;15392;48.912;8.380;2023-04-06T05:50:10;8.90;41.80
28087;DHT22;15392;48.912;8.380;2023-04-06T05:52:36;8.80;41.80
28087;DHT22;15392;48.912;8.380;2023-04-06T05:55:03;8.90;41.90
28087;DHT22;15392;48.912;8.380;2023-04-06T05:57:29;8.90;41.90
28087;DHT22;15392;48.912;8.380;2023-04-06T05:59:55;8.90;41.90
28087;DHT22;15392;48.912;8.380;2023-04-06T06:02:21;8.90;41.80
28087;DHT22;15392;48.912;8.380;2023-04-06T06:04:47;8.90;41.90
28087;DHT22;15392;48.912;8.380;2023-04-06T06:07:14;8.90;41.90
28087;DHT22;15392;48.912;8.380;2023-04-06T06:09:40;8.90;41.90
28087;DHT22;15392;48.912;8.380;2023-04-06T06:12:06;8.90;41.80
28087;DHT22;15392;48.912;8.380;2023-04-06T06:14:32;8.90;41.80
28087;DHT22;15392;48.912;8.380;2023-04-06T06:16:58;8.90;41.80
28087;DHT22;15392;48.912;8.380;2023-04-06T06:19:24;9.00;41.90
28087;DHT22;15392;48.912;8.380;2023-04-06T06:21:50;9.00;42.50
28087;DHT22;15392;48.912;8.380;2023-04-06T06:24:15;8.90;41.90
28087;DHT22;15392;48.912;8.380;2023-04-06T06:26:41;9.00;42.00
28087;DHT22;15392;48.912;8.380;2023-04-06T06:29:08;9.00;42.20
28087;DHT22;15392;48.912;8.380;2023-04-06T06:31:34;9.00;42.20
28087;DHT22;15392;48.912;8.380;2023-04-06T06:34:00;9.00;42.10
28087;DHT22;15392;48.912;8.380;2023-04-06T06:36:28;9.00;42.10
28087;DHT22;15392;48.912;8.380;2023-04-06T06:38:56;9.10;42.20
28087;DHT22;15392;48.912;8.380;2023-04-06T06:41:22;9.10;42.20
28087;DHT22;15392;48.912;8.380;2023-04-06T06:43:48;9.10;42.10
28087;DHT22;15392;48.912;8.380;2023-04-06T06:46:13;9.20;42.00
28087;DHT22;15392;48.912;8.380;2023-04-06T06:48:39;9.20;42.00
28087;DHT22;15392;48.912;8.380;2023-04-06T06:51:05;9.30;41.90
28087;DHT22;15392;48.912;8.380;2023-04-06T06:53:31;9.40;41.90
28087;DHT22;15392;48.912;8.380;2023-04-06T06:55:57;9.40;41.80
28087;DHT22;15392;48.912;8.380;2023-04-06T06:58:23;9.50;41.90
28087;DHT22;15392;48.912;8.380;2023-04-06T07:00:49;9.50;41.80
28087;DHT22;15392;48.912;8.380;2023-04-06T07:03:15;9.60;42.40
28087;DHT22;15392;48.912;8.380;2023-04-06T07:05:47;9.60;41.80
28087;DHT22;15392;48.912;8.380;2023-04-06T07:08:19;9.60;41.90
28087;DHT22;15392;48.912;8.380;2023-04-06T07:10:45;9.70;41.90
28087;DHT22;15392;48.912;8.380;2023-04-06T07:13:11;9.80;42.00
28087;DHT22;15392;48.912;8.380;2023-04-06T07:15:37;9.80;42.10
28087;DHT22;15392;48.912;8.380;2023-04-06T07:18:03;9.80;42.10
28087;DHT22;15392;48.912;8.380;2023-04-06T07:20:29;9.90;42.10
28087;DHT22;15392;48.912;8.380;2023-04-06T07:22:55;10.00;42.10
28087;DHT22;15392;48.912;8.380;2023-04-06T07:25:20;10.00;42.10
28087;DHT22;15392;48.912;8.380;2023-04-06T07:27:46;10.00;42.00
28087;DHT22;15392;48.912;8.380;2023-04-06T07:30:13;10.10;42.00
28087;DHT22;15392;48.912;8.380;2023-04-06T07:32:39;10.20;42.00
28087;DHT22;15392;48.912;8.380;2023-04-06T07:35:05;10.20;41.90
28087;DHT22;15392;48.912;8.380;2023-04-06T07:37:31;10.30;41.90
28087;DHT22;15392;48.912;8.380;2023-04-06T07:39:56;10.30;41.90
28087;DHT22;15392;48.912;8.380;2023-04-06T07:42:22;10.40;41.90
28087;DHT22;15392;48.912;8.380;2023-04-06T07:44:48;10.50;41.80
28087;DHT22;15392;48.912;8.380;2023-04-06T07:47:14;10.50;41.60
28087;DHT22;15392;48.912;8.380;2023-04-06T07:49:40;10.50;41.50
28087;DHT22;15392;48.912;8.380;2023-04-06T07:52:05;10.60;41.50
28087;DHT22;15392;48.912;8.380;2023-04-06T07:54:31;10.70;42.10
28087;DHT22;15392;48.912;8.380;2023-04-06T07:56:57;10.70;41.40
28087;DHT22;15392;48.912;8.380;2023-04-06T07:59:23;10.80;41.60
28087;DHT22;15392;48.912;8.380;2023-04-06T08:01:49;10.90;41.70
28087;DHT22;15392;48.912;8.380;2023-04-06T08:04:15;10.90;41.50
28087;DHT22;15392;48.912;8.380;2023-04-06T08:06:40;11.00;41.40
28087;DHT22;15392;48.912;8.380;2023-04-06T08:09:06;11.10;41.40
28087;DHT22;15392;48.912;8.380;2023-04-06T08:11:32;11.10;41.10
28087;DHT22;15392;48.912;8.380;2023-04-06T08:13:58;11.20;41.10
28087;DHT22;15392;48.912;8.380;2023-04-06T08:16:24;11.30;41.10
28087;DHT22;15392;48.912;8.380;2023-04-06T08:18:50;11.30;41.10
28087;DHT22;15392;48.912;8.380;2023-04-06T08:21:16;11.40;41.30
28087;DHT22;15392;48.912;8.380;2023-04-06T08:23:41;11.50;41.40
28087;DHT22;15392;48.912;8.380;2023-04-06T08:26:07;11.50;41.40
28087;DHT22;15392;48.912;8.380;2023-04-06T08:28:33;11.60;41.30
28087;DHT22;15392;48.912;8.380;2023-04-06T08:31:05;11.70;41.30
28087;DHT22;15392;48.912;8.380;2023-04-06T08:33:31;11.80;41.30
28087;DHT22;15392;48.912;8.380;2023-04-06T08:36:07;11.90;41.90
28087;DHT22;15392;48.912;8.380;2023-04-06T08:38:34;11.90;41.20
28087;DHT22;15392;48.912;8.380;2023-04-06T08:41:00;12.00;41.30
28087;DHT22;15392;48.912;8.380;2023-04-06T08:43:27;12.10;41.40
28087;DHT22;15392;48.912;8.380;2023-04-06T08:45:53;12.20;41.40
28087;DHT22;15392;48.912;8.380;2023-04-06T08:48:20;12.30;41.30
28087;DHT22;15392;48.912;8.380;2023-04-06T08:50:46;12.40;41.30
28087;DHT22;15392;48.912;8.380;2023-04-06T08:53:12;12.50;41.20
28087;DHT22;15392;48.912;8.380;2023-04-06T08:55:38;12.50;41.20
28087;DHT22;15392;48.912;8.380;2023-04-06T08:58:07;12.60;41.20
28087;DHT22;15392;48.912;8.380;2023-04-06T09:00:37;12.70;41.10
28087;DHT22;15392;48.912;8.380;2023-04-06T09:03:05;12.80;41.00
28087;DHT22;15392;48.912;8.380;2023-04-06T09:05:31;12.90;41.10
28087;DHT22;15392;48.912;8.380;2023-04-06T09:07:57;13.00;41.10
28087;DHT22;15392;48.912;8.380;2023-04-06T09:10:23;13.10;41.10
28087;DHT22;15392;48.912;8.380;2023-04-06T09:12:50;13.10;41.00
28087;DHT22;15392;48.912;8.380;2023-04-06T09:15:21;13.20;40.90
28087;DHT22;15392;48.912;8.380;2023-04-06T09:17:47;13.30;40.80
28087;DHT22;15392;48.912;8.380;2023-04-06T09:20:13;13.40;41.10
28087;DHT22;15392;48.912;8.380;2023-04-06T09:22:39;13.50;41.00
28087;DHT22;15392;48.912;8.380;2023-04-06T09:25:07;13.60;40.80
28087;DHT22;15392;48.912;8.380;2023-04-06T09:27:35;13.70;40.80
28087;DHT22;15392;48.912;8.380;2023-04-06T09:30:12;13.80;40.60
28087;DHT22;15392;48.912;8.380;2023-04-06T09:35:16;13.90;40.70
28087;DHT22;15392;48.912;8.380;2023-04-06T09:37:46;14.00;40.80
28087;DHT22;15392;48.912;8.380;2023-04-06T09:40:14;14.20;40.60
28087;DHT22;15392;48.912;8.380;2023-04-06T09:42:45;14.20;40.40
28087;DHT22;15392;48.912;8.380;2023-04-06T09:45:12;14.30;40.20
28087;DHT22;15392;48.912;8.380;2023-04-06T09:47:40;14.40;40.40
28087;DHT22;15392;48.912;8.380;2023-04-06T09:50:10;14.50;40.40
28087;DHT22;15392;48.912;8.380;2023-04-06T09:52:44;14.60;40.30
28087;DHT22;15392;48.912;8.380;2023-04-06T09:55:22;14.70;40.10
28087;DHT22;15392;48.912;8.380;2023-04-06T09:58:07;14.80;39.90
28087;DHT22;15392;48.912;8.380;2023-04-06T10:00:48;14.90;39.60
28087;DHT22;15392;48.912;8.380;2023-04-06T10:03:51;14.90;39.90
28087;DHT22;15392;48.912;8.380;2023-04-06T10:06:21;15.00;39.70
28087;DHT22;15392;48.912;8.380;2023-04-06T10:08:49;15.10;39.80
28087;DHT22;15392;48.912;8.380;2023-04-06T10:11:16;15.20;39.40
28087;DHT22;15392;48.912;8.380;2023-04-06T10:13:42;15.20;40.00
28087;DHT22;15392;48.912;8.380;2023-04-06T10:16:08;15.30;39.80
28087;DHT22;15392;48.912;8.380;2023-04-06T10:18:34;15.30;39.70
28087;DHT22;15392;48.912;8.380;2023-04-06T10:21:06;15.40;39.70
28087;DHT22;15392;48.912;8.380;2023-04-06T10:23:45;15.40;39.50
28087;DHT22;15392;48.912;8.380;2023-04-06T10:26:16;15.40;38.90
28087;DHT22;15392;48.912;8.380;2023-04-06T10:28:45;15.50;39.10
28087;DHT22;15392;48.912;8.380;2023-04-06T10:31:12;15.60;39.10
28087;DHT22;15392;48.912;8.380;2023-04-06T10:33:38;15.60;39.10
28087;DHT22;15392;48.912;8.380;2023-04-06T10:36:14;15.60;38.90
28087;DHT22;15392;48.912;8.380;2023-04-06T10:38:53;15.70;38.60
28087;DHT22;15392;48.912;8.380;2023-04-06T10:41:19;15.80;39.10
28087;DHT22;15392;48.912;8.380;2023-04-06T10:43:55;15.80;38.80
28087;DHT22;15392;48.912;8.380;2023-04-06T10:46:26;15.90;38.40
28087;DHT22;15392;48.912;8.380;2023-04-06T10:48:52;15.90;38.70
28087;DHT22;15392;48.912;8.380;2023-04-06T10:51:19;16.00;38.80
28087;DHT22;15392;48.912;8.380;2023-04-06T10:53:50;16.00;38.70
28087;DHT22;15392;48.912;8.380;2023-04-06T10:56:22;16.10;38.70
28087;DHT22;15392;48.912;8.380;2023-04-06T10:58:52;16.10;38.40
28087;DHT22;15392;48.912;8.380;2023-04-06T11:01:20;16.10;38.40
28087;DHT22;15392;48.912;8.380;2023-04-06T11:03:48;16.10;38.30
28087;DHT22;15392;48.912;8.380;2023-04-06T11:06:23;16.10;38.40
28087;DHT22;15392;48.912;8.380;2023-04-06T11:08:51;16.20;38.10
28087;DHT22;15392;48.912;8.380;2023-04-06T11:11:22;16.20;38.30
28087;DHT22;15392;48.912;8.380;2023-04-06T11:16:32;16.20;38.10
28087;DHT22;15392;48.912;8.380;2023-04-06T11:19:00;16.30;38.20
28087;DHT22;15392;48.912;8.380;2023-04-06T11:21:48;16.30;38.10
28087;DHT22;15392;48.912;8.380;2023-04-06T11:24:21;16.30;37.40
28087;DHT22;15392;48.912;8.380;2023-04-06T11:26:56;16.40;37.80
28087;DHT22;15392;48.912;8.380;2023-04-06T11:29:24;16.40;37.70
28087;DHT22;15392;48.912;8.380;2023-04-06T11:31:53;16.50;38.20
28087;DHT22;15392;48.912;8.380;2023-04-06T11:34:21;16.50;38.00
28087;DHT22;15392;48.912;8.380;2023-04-06T11:36:53;16.50;37.90
28087;DHT22;15392;48.912;8.380;2023-04-06T11:39:23;16.60;38.10
28087;DHT22;15392;48.912;8.380;2023-04-06T11:41:53;16.60;38.30
28087;DHT22;15392;48.912;8.380;2023-04-06T11:44:32;16.70;38.90
28087;DHT22;15392;48.912;8.380;2023-04-06T11:47:10;16.70;37.80
28087;DHT22;15392;48.912;8.380;2023-04-06T11:49:38;16.70;37.80
28087;DHT22;15392;48.912;8.380;2023-04-06T11:52:15;16.80;38.10
28087;DHT22;15392;48.912;8.380;2023-04-06T11:54:41;16.80;37.60
28087;DHT22;15392;48.912;8.380;2023-04-06T11:57:08;16.90;38.20
28087;DHT22;15392;48.912;8.380;2023-04-06T11:59:35;16.90;38.10
28087;DHT22;15392;48.912;8.380;2023-04-06T12:02:01;16.90;38.10
28087;DHT22;15392;48.912;8.380;2023-04-06T12:04:28;16.90;38.10
28087;DHT22;15392;48.912;8.380;2023-04-06T12:06:54;17.00;38.00
28087;DHT22;15392;48.912;8.380;2023-04-06T12:09:21;17.00;37.50
28087;DHT22;15392;48.912;8.380;2023-04-06T12:11:47;17.10;37.80
28087;DHT22;15392;48.912;8.380;2023-04-06T12:14:13;17.10;37.80
28087;DHT22;15392;48.912;8.380;2023-04-06T12:16:39;17.10;37.80
28087;DHT22;15392;48.912;8.380;2023-04-06T12:19:05;17.10;37.90
28087;DHT22;15392;48.912;8.380;2023-04-06T12:21:32;17.10;37.90
28087;DHT22;15392;48.912;8.380;2023-04-06T12:23:58;17.20;37.90
28087;DHT22;15392;48.912;8.380;2023-04-06T12:26:25;17.20;37.80
28087;DHT22;15392;48.912;8.380;2023-04-06T12:28:52;17.20;37.80
28087;DHT22;15392;48.912;8.380;2023-04-06T12:31:19;17.30;37.90
28087;DHT22;15392;48.912;8.380;2023-04-06T12:33:47;17.30;37.80
28087;DHT22;15392;48.912;8.380;2023-04-06T12:36:15;17.30;37.60
28087;DHT22;15392;48.912;8.380;2023-04-06T12:38:44;17.40;37.60
28087;DHT22;15392;48.912;8.380;2023-04-06T12:41:14;17.40;37.50
28087;DHT22;15392;48.912;8.380;2023-04-06T12:43:41;17.40;37.70
28087;DHT22;15392;48.912;8.380;2023-04-06T12:46:07;17.40;37.60
28087;DHT22;15392;48.912;8.380;2023-04-06T12:48:33;17.40;37.60
28087;DHT22;15392;48.912;8.380;2023-04-06T12:51:01;17.50;37.60
28087;DHT22;15392;48.912;8.380;2023-04-06T12:53:27;17.50;37.30
28087;DHT22;15392;48.912;8.380;2023-04-06T12:55:55;17.50;37.30
28087;DHT22;15392;48.912;8.380;2023-04-06T12:58:22;17.60;37.50
28087;DHT22;15392;48.912;8.380;2023-04-06T13:00:49;17.60;37.10
28087;DHT22;15392;48.912;8.380;2023-04-06T13:03:16;17.60;37.20
28087;DHT22;15392;48.912;8.380;2023-04-06T13:05:47;17.60;37.20
28087;DHT22;15392;48.912;8.380;2023-04-06T13:08:14;17.70;36.70
28087;DHT22;15392;48.912;8.380;2023-04-06T13:10:47;17.70;37.10
28087;DHT22;15392;48.912;8.380;2023-04-06T13:13:23;17.70;36.20
28087;DHT22;15392;48.912;8.380;2023-04-06T13:15:51;17.70;37.00
28087;DHT22;15392;48.912;8.380;2023-04-06T13:18:17;17.80;36.60
28087;DHT22;15392;48.912;8.380;2023-04-06T13:20:43;17.80;36.70
28087;DHT22;15392;48.912;8.380;2023-04-06T13:23:09;17.80;36.60
28087;DHT22;15392;48.912;8.380;2023-04-06T13:25:37;17.80;36.60
28087;DHT22;15392;48.912;8.380;2023-04-06T13:28:02;17.90;36.50
28087;DHT22;15392;48.912;8.380;2023-04-06T13:30:28;17.90;36.40
28087;DHT22;15392;48.912;8.380;2023-04-06T13:32:54;17.90;36.20
28087;DHT22;15392;48.912;8.380;2023-04-06T13:35:20;17.90;36.30
28087;DHT22;15392;48.912;8.380;2023-04-06T13:37:45;17.90;36.10
28087;DHT22;15392;48.912;8.380;2023-04-06T13:40:11;18.00;36.10
28087;DHT22;15392;48.912;8.380;2023-04-06T13:42:37;18.00;36.10
28087;DHT22;15392;48.912;8.380;2023-04-06T13:45:06;18.00;36.20
28087;DHT22;15392;48.912;8.380;2023-04-06T13:47:32;18.00;35.80
28087;DHT22;15392;48.912;8.380;2023-04-06T13:49:58;18.00;36.00
28087;DHT22;15392;48.912;8.380;2023-04-06T13:52:24;18.10;36.10
28087;DHT22;15392;48.912;8.380;2023-04-06T13:54:50;18.10;36.10
28087;DHT22;15392;48.912;8.380;2023-04-06T13:57:16;18.10;35.90
28087;DHT22;15392;48.912;8.380;2023-04-06T13:59:42;18.10;36.10
28087;DHT22;15392;48.912;8.380;2023-04-06T14:02:09;18.20;36.20
28087;DHT22;15392;48.912;8.380;2023-04-06T14:04:36;18.20;35.80
28087;DHT22;15392;48.912;8.380;2023-04-06T14:07:02;18.20;35.40
28087;DHT22;15392;48.912;8.380;2023-04-06T14:09:29;18.20;35.70
28087;DHT22;15392;48.912;8.380;2023-04-06T14:11:56;18.20;35.60
28087;DHT22;15392;48.912;8.380;2023-04-06T14:14:23;18.20;35.60
28087;DHT22;15392;48.912;8.380;2023-04-06T14:16:49;18.30;35.60
28087;DHT22;15392;48.912;8.380;2023-04-06T14:19:16;18.30;35.60
28087;DHT22;15392;48.912;8.380;2023-04-06T14:21:46;18.20;35.60
28087;DHT22;15392;48.912;8.380;2023-04-06T14:24:13;18.30;35.40
28087;DHT22;15392;48.912;8.380;2023-04-06T14:26:40;18.30;35.60
28087;DHT22;15392;48.912;8.380;2023-04-06T14:29:10;18.30;35.60
28087;DHT22;15392;48.912;8.380;2023-04-06T14:31:36;18.30;35.60
28087;DHT22;15392;48.912;8.380;2023-04-06T14:34:03;18.30;35.70
28087;DHT22;15392;48.912;8.380;2023-04-06T14:36:31;18.30;35.40
28087;DHT22;15392;48.912;8.380;2023-04-06T14:39:03;18.30;35.30
28087;DHT22;15392;48.912;8.380;2023-04-06T14:41:30;18.30;35.30
28087;DHT22;15392;48.912;8.380;2023-04-06T14:43:57;18.20;35.40
28087;DHT22;15392;48.912;8.380;2023-04-06T14:46:22;18.30;35.50
28087;DHT22;15392;48.912;8.380;2023-04-06T14:48:48;18.30;35.60
28087;DHT22;15392;48.912;8.380;2023-04-06T14:51:14;18.20;35.70
28087;DHT22;15392;48.912;8.380;2023-04-06T14:53:40;18.30;35.60
28087;DHT22;15392;48.912;8.380;2023-04-06T14:56:06;18.20;35.50
28087;DHT22;15392;48.912;8.380;2023-04-06T14:58:32;18.20;35.60
28087;DHT22;15392;48.912;8.380;2023-04-06T15:00:59;18.20;35.60
28087;DHT22;15392;48.912;8.380;2023-04-06T15:03:29;18.20;35.50
28087;DHT22;15392;48.912;8.380;2023-04-06T15:05:56;18.20;35.00
28087;DHT22;15392;48.912;8.380;2023-04-06T15:08:22;18.20;35.40
28087;DHT22;15392;48.912;8.380;2023-04-06T15:10:49;18.10;35.50
28087;DHT22;15392;48.912;8.380;2023-04-06T15:13:17;18.10;35.50
28087;DHT22;15392;48.912;8.380;2023-04-06T15:15:43;18.20;35.60
28087;DHT22;15392;48.912;8.380;2023-04-06T15:18:10;18.10;35.70
28087;DHT22;15392;48.912;8.380;2023-04-06T15:20:37;18.10;35.80
28087;DHT22;15392;48.912;8.380;2023-04-06T15:23:03;18.10;36.00
28087;DHT22;15392;48.912;8.380;2023-04-06T15:25:30;18.10;35.90
28087;DHT22;15392;48.912;8.380;2023-04-06T15:27:56;18.10;35.90
28087;DHT22;15392;48.912;8.380;2023-04-06T15:30:22;18.10;35.90
28087;DHT22;15392;48.912;8.380;2023-04-06T15:32:56;18.10;36.00
28087;DHT22;15392;48.912;8.380;2023-04-06T15:35:29;18.10;35.40
28087;DHT22;15392;48.912;8.380;2023-04-06T15:37:55;18.10;36.10
28087;DHT22;15392;48.912;8.380;2023-04-06T15:40:22;18.10;36.10
28087;DHT22;15392;48.912;8.380;2023-04-06T15:42:48;18.10;36.20